KFFT/FFT METAR and TAF weather

Enter ICAO airport designator
Station Type Date Time Source
KFFT METAR 2021/09/23 17:53 UTC NOAA

KFFT 231753Z AUTO 29005G18KT 10SM SCT042 18/09 A3002 RMK AO2 SLP161 T01830094 10189 20106 51002


Station Type Date Time Source
KFFT Decoded METAR 2021/09/23 17:53 UTC NOAA

FRANKFORT CAPITAL CITY AIRPORT , KY, United States (KFFT) 38-11N 84-54W 236M
Sep 23, 2021 - 01:53 PM EDT / 2021.09.23 1753 UTC
Wind: from the WNW (290 degrees) at 6 MPH (5 KT) gusting to 21 MPH (18 KT):0
Visibility: 10 mile(s):0
Sky conditions: partly cloudy
Temperature: 64.9 F (18.3 C)
Dew Point: 48.9 F (9.4 C)
Relative Humidity: 56%
Pressure (altimeter): 30.02 in. Hg (1016 hPa)
Pressure tendency: 0.01 inches (0.2 hPa) higher than three hours ago
ob: KFFT 231753Z AUTO 29005G18KT 10SM SCT042 18/09 A3002 RMK AO2 SLP161 T01830094 10189 20106 51002
cycle: 18

Station Type Date Time Source
KFFT TAF UTC NOAA

Error!

Example: see airport list